Time;durP1;ratioP1;P1;durP2;ratioP2;P2;SDS_P1;SDS_P2;PMS_P1;PMS_P2;Temp;Humidity;BMP_temperature;BMP_pressure;BME280_temperature;BME280_humidity;BME280_pressure;Samples;Min_cycle;Max_cycle;Signal;HPM_P1;HPM_P2
2023/04/22 00:00:48;;;;;;;45.92;27.05;;;9.40;99.90;;;;;;5012965;28;20061;-70
2023/04/22 00:03:13;;;;;;;47.13;26.98;;;9.40;99.90;;;;;;5012239;28;20101;-70
2023/04/22 00:05:40;;;;;;;48.83;27.27;;;9.30;99.90;;;;;;5013165;28;20479;-69
2023/04/22 00:08:07;;;;;;;50.63;28.75;;;9.30;99.90;;;;;;5012589;28;20022;-69
2023/04/22 00:10:33;;;;;;;52.38;27.27;;;9.30;99.90;;;;;;5012693;28;20133;-69
2023/04/22 00:13:00;;;;;;;49.22;28.15;;;9.20;99.90;;;;;;5012787;28;20053;-70
2023/04/22 00:15:25;;;;;;;50.88;28.15;;;9.20;99.90;;;;;;5013318;28;20079;-70
2023/04/22 00:17:51;;;;;;;49.45;28.42;;;9.20;99.90;;;;;;5011429;28;20049;-70
2023/04/22 00:20:20;;;;;;;53.88;31.02;;;9.10;99.90;;;;;;5002707;28;20097;-69
2023/04/22 00:22:46;;;;;;;60.42;31.33;;;9.10;99.90;;;;;;5012384;28;20500;-70
2023/04/22 00:25:11;;;;;;;55.40;31.63;;;9.10;99.90;;;;;;5013019;28;20057;-69
2023/04/22 00:27:37;;;;;;;53.60;31.25;;;9.00;99.90;;;;;;5012474;28;20080;-69
2023/04/22 00:30:04;;;;;;;51.63;29.90;;;9.00;99.90;;;;;;5002924;28;20030;-69
2023/04/22 00:32:30;;;;;;;51.42;29.63;;;9.00;99.90;;;;;;5009355;28;20018;-70
2023/04/22 00:34:56;;;;;;;56.13;30.50;;;8.90;99.90;;;;;;5012355;28;20496;-70
2023/04/22 00:37:24;;;;;;;52.30;29.42;;;8.90;99.90;;;;;;5012330;28;20022;-70
2023/04/22 00:39:49;;;;;;;52.75;30.23;;;8.90;99.90;;;;;;5012618;28;20068;-70
2023/04/22 00:42:15;;;;;;;53.28;30.65;;;8.80;99.90;;;;;;5011838;28;20057;-71
2023/04/22 00:44:41;;;;;;;50.83;30.13;;;8.80;99.90;;;;;;5012144;28;20608;-70
2023/04/22 00:47:08;;;;;;;56.97;30.80;;;8.80;99.90;;;;;;5011981;28;20020;-69
2023/04/22 00:49:35;;;;;;;53.17;30.20;;;8.70;99.90;;;;;;5012246;28;20032;-70
2023/04/22 00:52:01;;;;;;;57.70;31.88;;;8.70;99.90;;;;;;5012320;28;20097;-70
2023/04/22 00:54:27;;;;;;;54.40;31.10;;;8.70;99.90;;;;;;5011863;28;20030;-70
2023/04/22 00:56:55;;;;;;;58.90;31.70;;;8.70;99.90;;;;;;5011424;28;20473;-69
2023/04/22 00:59:22;;;;;;;61.58;33.47;;;8.60;99.90;;;;;;5012282;28;20025;-70
2023/04/22 01:01:48;;;;;;;62.65;32.28;;;8.60;99.90;;;;;;5009083;28;20030;-69
2023/04/22 01:04:14;;;;;;;55.13;32.17;;;8.60;99.90;;;;;;5002012;28;20026;-69
2023/04/22 01:06:40;;;;;;;56.35;31.33;;;8.50;99.90;;;;;;5011434;28;20465;-70
2023/04/22 01:09:06;;;;;;;52.55;30.52;;;8.50;99.90;;;;;;5011485;28;20018;-70
2023/04/22 01:11:34;;;;;;;56.47;31.90;;;8.50;99.90;;;;;;5010919;28;20046;-70
2023/04/22 01:13:59;;;;;;;61.42;33.15;;;8.40;99.90;;;;;;5011651;28;20397;-69
2023/04/22 01:16:27;;;;;;;60.17;33.30;;;8.40;99.90;;;;;;5009240;28;20068;-69
2023/04/22 01:18:53;;;;;;;60.03;33.55;;;8.40;99.90;;;;;;5004346;28;20025;-69
2023/04/22 01:21:19;;;;;;;61.85;31.67;;;8.40;99.90;;;;;;5011099;28;20022;-69
2023/04/22 01:23:56;;;;;;;58.25;32.05;;;8.40;99.90;;;;;;5011906;28;20394;-70
2023/04/22 01:26:22;;;;;;;53.72;31.60;;;8.30;99.90;;;;;;5009636;28;20094;-70
2023/04/22 01:28:48;;;;;;;56.42;30.98;;;8.30;99.90;;;;;;5011386;28;20101;-70
2023/04/22 01:31:14;;;;;;;57.58;32.42;;;8.30;99.90;;;;;;5011677;28;20205;-70
2023/04/22 01:33:40;;;;;;;59.10;32.05;;;8.20;99.90;;;;;;5011715;28;20038;-71
2023/04/22 01:36:06;;;;;;;64.75;34.25;;;8.20;99.90;;;;;;5011270;28;20041;-70
2023/04/22 01:38:32;;;;;;;63.15;34.83;;;8.20;99.90;;;;;;5011678;28;20022;-70
2023/04/22 01:40:59;;;;;;;60.13;33.72;;;8.20;99.90;;;;;;5011622;28;20038;-69
2023/04/22 01:43:25;;;;;;;61.30;33.53;;;8.20;99.90;;;;;;5011185;28;20038;-70
2023/04/22 01:45:51;;;;;;;69.82;36.10;;;8.10;99.90;;;;;;5011186;28;20021;-70
2023/04/22 01:48:16;;;;;;;66.45;37.38;;;8.10;99.90;;;;;;5011106;28;20032;-71
2023/04/22 01:50:42;;;;;;;66.93;37.60;;;8.10;99.90;;;;;;5010842;28;20057;-71
2023/04/22 01:53:08;;;;;;;66.07;36.83;;;8.10;99.90;;;;;;5011143;28;20030;-70
2023/04/22 01:55:34;;;;;;;63.53;36.30;;;8.10;99.90;;;;;;5008879;28;20470;-70
2023/04/22 01:58:01;;;;;;;62.25;36.63;;;8.10;99.90;;;;;;5011133;28;20049;-70
2023/04/22 02:00:26;;;;;;;64.35;36.00;;;8.00;99.90;;;;;;5010754;28;20057;-70
2023/04/22 02:02:52;;;;;;;67.45;36.65;;;8.00;99.90;;;;;;5010687;28;20535;-70
2023/04/22 02:05:18;;;;;;;67.15;37.83;;;8.00;99.90;;;;;;5010189;28;20519;-70
2023/04/22 02:07:43;;;;;;;65.20;36.25;;;8.00;99.90;;;;;;5010783;28;20025;-70
2023/04/22 02:10:10;;;;;;;64.70;36.85;;;8.00;99.90;;;;;;5009957;28;20523;-70
2023/04/22 02:12:36;;;;;;;67.53;36.47;;;7.90;99.90;;;;;;5011107;28;20022;-70
2023/04/22 02:15:01;;;;;;;66.80;37.42;;;7.90;99.90;;;;;;5010568;28;20445;-70
2023/04/22 02:17:27;;;;;;;61.08;34.85;;;7.90;99.90;;;;;;5011005;28;20029;-70
2023/04/22 02:19:53;;;;;;;67.53;36.13;;;7.90;99.90;;;;;;5010310;28;20036;-70
2023/04/22 02:22:19;;;;;;;70.40;37.92;;;7.90;99.90;;;;;;5010412;28;20061;-70
2023/04/22 02:24:45;;;;;;;66.85;36.20;;;7.90;99.90;;;;;;5010359;28;20018;-71
2023/04/22 02:27:10;;;;;;;68.00;36.97;;;7.80;99.90;;;;;;5010545;28;20037;-71
2023/04/22 02:29:36;;;;;;;65.55;36.13;;;7.80;99.90;;;;;;5010189;28;20021;-70
2023/04/22 02:32:02;;;;;;;67.95;35.70;;;7.80;99.90;;;;;;5010914;28;20075;-70
2023/04/22 02:34:27;;;;;;;62.58;35.22;;;7.80;99.90;;;;;;5010209;28;20022;-70
2023/04/22 02:36:53;;;;;;;67.35;37.15;;;7.80;99.90;;;;;;5009804;28;20022;-70
2023/04/22 02:39:18;;;;;;;62.78;35.63;;;7.80;99.90;;;;;;5009601;28;20029;-70
2023/04/22 02:41:44;;;;;;;62.90;35.58;;;7.70;99.90;;;;;;5009996;28;20416;-70
2023/04/22 02:44:10;;;;;;;65.82;35.55;;;7.70;99.90;;;;;;5008847;28;20022;-70
2023/04/22 02:46:35;;;;;;;66.25;36.67;;;7.70;99.90;;;;;;5008885;28;20384;-69
2023/04/22 02:49:01;;;;;;;64.53;36.85;;;7.70;99.90;;;;;;5009577;28;20032;-69
2023/04/22 02:51:27;;;;;;;64.60;36.78;;;7.70;99.90;;;;;;5009707;28;20034;-69
2023/04/22 02:53:52;;;;;;;69.13;37.60;;;7.70;99.90;;;;;;5010372;28;20305;-70
2023/04/22 02:56:19;;;;;;;68.28;38.13;;;7.70;99.90;;;;;;5010249;28;20034;-70
2023/04/22 02:58:44;;;;;;;71.03;38.22;;;7.70;99.90;;;;;;5009767;28;20029;-70
2023/04/22 03:01:10;;;;;;;72.88;38.30;;;7.70;99.90;;;;;;5009991;28;20440;-70
2023/04/22 03:03:36;;;;;;;74.03;39.67;;;7.70;99.90;;;;;;5010122;28;20029;-70
2023/04/22 03:06:01;;;;;;;69.18;38.03;;;7.70;99.90;;;;;;5008925;28;20022;-70
2023/04/22 03:08:27;;;;;;;76.35;40.05;;;7.70;99.90;;;;;;5010561;28;20642;-70
2023/04/22 03:10:52;;;;;;;70.55;37.67;;;7.70;99.90;;;;;;5008859;28;20073;-70
2023/04/22 03:13:18;;;;;;;73.80;39.70;;;7.70;99.90;;;;;;5010121;28;20021;-71
2023/04/22 03:15:44;;;;;;;76.97;40.15;;;7.60;99.90;;;;;;5009759;28;20025;-70
2023/04/22 03:18:09;;;;;;;75.18;39.40;;;7.60;99.90;;;;;;5010445;28;20509;-69
2023/04/22 03:20:35;;;;;;;77.38;40.88;;;7.60;99.90;;;;;;5009307;28;20065;-69
2023/04/22 03:23:01;;;;;;;76.70;39.88;;;7.60;99.90;;;;;;5010103;28;20026;-70
2023/04/22 03:25:26;;;;;;;77.35;41.15;;;7.60;99.90;;;;;;5010170;28;20029;-70
2023/04/22 03:27:52;;;;;;;80.22;42.28;;;7.60;99.90;;;;;;5009482;28;20532;-69
2023/04/22 03:30:18;;;;;;;80.05;42.50;;;7.70;99.90;;;;;;5010842;28;20140;-70
2023/04/22 03:32:43;;;;;;;82.20;42.80;;;7.70;99.90;;;;;;5010638;28;20289;-71
2023/04/22 03:35:09;;;;;;;83.13;42.60;;;7.60;99.90;;;;;;5010357;28;20435;-70
2023/04/22 03:37:35;;;;;;;82.63;42.88;;;7.70;99.90;;;;;;5013345;28;20038;-70
2023/04/22 03:40:00;;;;;;;82.50;42.85;;;7.70;99.90;;;;;;5014156;28;20396;-70
2023/04/22 03:42:26;;;;;;;83.57;44.72;;;7.70;99.90;;;;;;5013974;28;20021;-70
2023/04/22 03:44:52;;;;;;;85.53;44.05;;;7.70;99.90;;;;;;5013847;28;20022;-70
2023/04/22 03:47:17;;;;;;;84.93;45.63;;;7.70;99.90;;;;;;5014374;28;20092;-69
2023/04/22 03:49:43;;;;;;;81.45;42.75;;;7.70;99.90;;;;;;5014165;28;20042;-70
2023/04/22 03:52:09;;;;;;;81.38;44.10;;;7.70;99.90;;;;;;5014328;28;20018;-69
2023/04/22 03:54:35;;;;;;;86.20;46.00;;;7.80;99.90;;;;;;5013519;28;20062;-69
2023/04/22 03:57:01;;;;;;;82.63;44.05;;;7.80;99.90;;;;;;5013836;28;20034;-70
2023/04/22 03:59:27;;;;;;;84.47;44.88;;;7.80;99.90;;;;;;5001538;28;20109;-69
2023/04/22 04:01:53;;;;;;;91.10;45.10;;;7.80;99.90;;;;;;5014064;28;20097;-70
2023/04/22 04:04:19;;;;;;;86.85;45.38;;;7.80;99.90;;;;;;5014029;28;20034;-70
2023/04/22 04:06:44;;;;;;;92.30;46.75;;;7.80;99.90;;;;;;5013266;28;20420;-70
2023/04/22 04:09:11;;;;;;;89.57;46.03;;;7.80;99.90;;;;;;5015068;28;20021;-69
2023/04/22 04:11:36;;;;;;;87.38;46.08;;;7.80;99.90;;;;;;5014899;28;20091;-70
2023/04/22 04:14:02;;;;;;;86.53;45.70;;;7.90;99.90;;;;;;5014677;28;20022;-70
2023/04/22 04:16:28;;;;;;;85.15;46.25;;;7.90;99.90;;;;;;5013778;28;20068;-70
2023/04/22 04:18:53;;;;;;;85.40;45.03;;;7.90;99.90;;;;;;5014897;28;20025;-70
2023/04/22 04:21:19;;;;;;;90.68;48.13;;;7.90;99.90;;;;;;5014372;28;20033;-70
2023/04/22 04:23:46;;;;;;;85.45;45.58;;;7.90;99.90;;;;;;5014454;28;20049;-70
2023/04/22 04:26:13;;;;;;;87.28;45.67;;;7.90;99.90;;;;;;5013536;28;20022;-70
2023/04/22 04:28:40;;;;;;;84.40;44.40;;;7.90;99.90;;;;;;5014000;28;20030;-69
2023/04/22 04:31:06;;;;;;;86.30;46.05;;;7.90;99.90;;;;;;5013688;28;20083;-70
2023/04/22 04:33:32;;;;;;;86.60;46.95;;;7.90;99.90;;;;;;5013346;28;20376;-70
2023/04/22 04:35:58;;;;;;;81.97;44.05;;;7.90;99.90;;;;;;5012297;28;20029;-70
2023/04/22 04:38:25;;;;;;;87.18;46.15;;;7.90;99.90;;;;;;5012683;28;20017;-70
2023/04/22 04:40:51;;;;;;;90.05;45.75;;;7.90;99.90;;;;;;5011852;28;20121;-70
2023/04/22 04:43:17;;;;;;;89.45;46.50;;;7.90;99.90;;;;;;5012452;28;20026;-70
2023/04/22 04:45:45;;;;;;;87.45;46.33;;;7.90;99.90;;;;;;5012570;28;20535;-70
2023/04/22 04:48:14;;;;;;;85.82;46.00;;;7.90;99.90;;;;;;5011001;28;20033;-70
2023/04/22 04:50:43;;;;;;;88.20;46.10;;;7.90;99.90;;;;;;5012388;28;20044;-70
2023/04/22 04:53:10;;;;;;;84.55;46.22;;;7.90;99.90;;;;;;5012817;28;20026;-70
2023/04/22 04:55:36;;;;;;;84.97;44.35;;;7.90;99.90;;;;;;5012439;28;20036;-70
2023/04/22 04:58:02;;;;;;;86.63;46.97;;;7.90;99.90;;;;;;5012815;28;20013;-70
2023/04/22 05:00:27;;;;;;;88.57;45.75;;;7.90;99.90;;;;;;4999618;28;20237;-71
2023/04/22 05:02:53;;;;;;;82.55;44.08;;;7.90;99.90;;;;;;5010811;28;20022;-69
2023/04/22 05:05:18;;;;;;;80.32;44.50;;;7.90;99.90;;;;;;5012382;28;20396;-70
2023/04/22 05:07:44;;;;;;;83.18;44.95;;;7.90;99.90;;;;;;5010077;28;20036;-70
2023/04/22 05:10:11;;;;;;;79.03;43.35;;;7.90;99.90;;;;;;5011473;28;20077;-70
2023/04/22 05:12:36;;;;;;;81.85;43.78;;;7.90;99.90;;;;;;5012268;28;20026;-70
2023/04/22 05:15:02;;;;;;;80.40;43.20;;;7.90;99.90;;;;;;5012577;28;20453;-71
2023/04/22 05:17:28;;;;;;;82.55;43.85;;;8.00;99.90;;;;;;4999313;28;20044;-70
2023/04/22 05:19:53;;;;;;;78.90;43.33;;;7.90;99.90;;;;;;5011954;28;20497;-70
2023/04/22 05:22:19;;;;;;;84.55;45.40;;;7.90;99.90;;;;;;5012168;28;20022;-70
2023/04/22 05:24:45;;;;;;;84.90;45.30;;;8.00;99.90;;;;;;5025270;28;20046;-71
2023/04/22 05:27:10;;;;;;;84.50;45.03;;;8.00;99.90;;;;;;5011745;28;20025;-70
2023/04/22 05:29:36;;;;;;;79.30;43.95;;;8.00;99.90;;;;;;5011916;28;20034;-71
2023/04/22 05:32:02;;;;;;;81.72;43.85;;;8.00;99.90;;;;;;5012746;28;20030;-70
2023/04/22 05:34:27;;;;;;;87.63;44.05;;;8.10;99.90;;;;;;5013248;28;20049;-69
2023/04/22 05:36:53;;;;;;;85.15;45.30;;;8.10;99.90;;;;;;5012456;28;20029;-69
2023/04/22 05:39:19;;;;;;;78.80;42.97;;;8.10;99.90;;;;;;5011781;28;20030;-70
2023/04/22 05:41:45;;;;;;;72.47;41.22;;;8.10;99.90;;;;;;5011517;28;20026;-70
2023/04/22 05:44:10;;;;;;;75.25;42.20;;;8.20;99.90;;;;;;5011591;28;20018;-70
2023/04/22 05:46:36;;;;;;;72.05;41.00;;;8.20;99.90;;;;;;5009424;28;20053;-70
2023/04/22 05:49:02;;;;;;;71.50;40.65;;;8.20;99.90;;;;;;5000273;28;20093;-71
2023/04/22 05:51:27;;;;;;;69.65;40.17;;;8.20;99.90;;;;;;5010480;28;20117;-70
2023/04/22 05:53:53;;;;;;;69.45;39.17;;;8.20;99.90;;;;;;5009945;28;20025;-69
2023/04/22 05:56:20;;;;;;;66.60;38.78;;;8.30;99.90;;;;;;5010786;28;20030;-70
2023/04/22 05:58:45;;;;;;;66.93;39.17;;;8.30;99.90;;;;;;5010318;28;20056;-71
2023/04/22 06:01:12;;;;;;;64.72;37.80;;;8.40;99.90;;;;;;5010804;28;20104;-70
2023/04/22 06:03:37;;;;;;;62.78;37.47;;;8.40;99.90;;;;;;5010139;28;20028;-71
2023/04/22 06:06:03;;;;;;;62.30;36.53;;;8.40;99.90;;;;;;5010532;28;20018;-69
2023/04/22 06:08:30;;;;;;;67.43;39.17;;;8.50;99.90;;;;;;5009641;28;20017;-70
2023/04/22 06:10:56;;;;;;;61.83;36.13;;;8.50;99.90;;;;;;5009789;28;20129;-70
2023/04/22 06:13:21;;;;;;;65.47;38.45;;;8.60;99.90;;;;;;5010501;28;20113;-69
2023/04/22 06:15:47;;;;;;;64.18;37.40;;;8.60;99.90;;;;;;5010980;28;20030;-70
2023/04/22 06:18:13;;;;;;;59.47;36.40;;;8.60;99.90;;;;;;5010941;28;20026;-70
2023/04/22 06:20:39;;;;;;;61.25;37.25;;;8.70;99.90;;;;;;5011910;28;20081;-70
2023/04/22 06:23:04;;;;;;;61.42;36.75;;;8.80;99.90;;;;;;5011824;28;20550;-70
2023/04/22 06:25:33;;;;;;;61.00;36.83;;;8.80;99.90;;;;;;5011188;28;20130;-70
2023/04/22 06:27:59;;;;;;;61.60;37.25;;;8.80;99.90;;;;;;5011018;28;20132;-70
2023/04/22 06:30:26;;;;;;;62.25;38.08;;;8.90;99.90;;;;;;5013043;28;20112;-69
2023/04/22 06:32:53;;;;;;;68.40;40.60;;;9.00;99.90;;;;;;5012433;28;20030;-70
2023/04/22 06:35:20;;;;;;;60.72;38.17;;;9.00;99.90;;;;;;5011412;28;20026;-69
2023/04/22 06:37:46;;;;;;;62.13;38.70;;;9.10;99.90;;;;;;5010811;28;20030;-69
2023/04/22 06:40:13;;;;;;;57.78;36.63;;;9.10;99.90;;;;;;5010450;28;20033;-70
2023/04/22 06:42:39;;;;;;;64.00;38.63;;;9.20;99.90;;;;;;5010455;28;20033;-70
2023/04/22 06:45:08;;;;;;;64.43;37.35;;;9.30;99.90;;;;;;5010026;28;20034;-70
2023/04/22 06:47:34;;;;;;;58.90;37.17;;;9.30;99.90;;;;;;5010298;28;20026;-70
2023/04/22 06:50:01;;;;;;;64.20;37.80;;;9.40;99.90;;;;;;5007040;28;20083;-70
2023/04/22 06:52:26;;;;;;;62.13;37.83;;;9.50;99.90;;;;;;5010249;28;20041;-70
2023/04/22 06:54:52;;;;;;;58.63;36.42;;;9.60;99.90;;;;;;5009114;28;20018;-70
2023/04/22 06:57:18;;;;;;;64.40;37.55;;;9.70;99.90;;;;;;5008792;28;20468;-70
2023/04/22 06:59:43;;;;;;;59.70;36.80;;;9.70;99.90;;;;;;5007212;28;20154;-70
2023/04/22 07:02:09;;;;;;;60.25;36.65;;;9.80;99.90;;;;;;5007598;28;20076;-70
2023/04/22 07:04:34;;;;;;;53.88;34.72;;;9.90;99.90;;;;;;5008693;28;20030;-70
2023/04/22 07:07:00;;;;;;;56.35;36.25;;;9.90;99.90;;;;;;5008686;28;20010;-70
2023/04/22 07:09:26;;;;;;;52.60;34.45;;;10.00;99.90;;;;;;5008378;28;20419;-70
2023/04/22 07:11:51;;;;;;;55.17;35.78;;;10.10;99.90;;;;;;5012757;28;20033;-70
2023/04/22 07:14:17;;;;;;;58.55;35.92;;;10.20;99.90;;;;;;5011306;28;20027;-70
2023/04/22 07:16:43;;;;;;;55.70;36.05;;;10.30;99.90;;;;;;5009961;28;20100;-70
2023/04/22 07:19:08;;;;;;;54.83;34.70;;;10.40;99.90;;;;;;5014063;28;20025;-69
2023/04/22 07:21:34;;;;;;;55.58;35.40;;;10.40;99.90;;;;;;5014574;28;20022;-69
2023/04/22 07:23:59;;;;;;;55.15;33.92;;;10.50;99.90;;;;;;5007613;28;20070;-70
2023/04/22 07:26:25;;;;;;;46.58;31.70;;;10.60;99.90;;;;;;5014625;28;20037;-70
2023/04/22 07:28:51;;;;;;;50.78;32.22;;;10.70;99.90;;;;;;5014547;28;20095;-70
2023/04/22 07:31:16;;;;;;;50.38;31.65;;;10.80;99.90;;;;;;5012716;28;20035;-70
2023/04/22 07:33:42;;;;;;;51.38;31.45;;;10.80;99.90;;;;;;5012027;28;20048;-70
2023/04/22 07:36:07;;;;;;;49.53;31.90;;;10.90;99.90;;;;;;5014085;28;20026;-70
2023/04/22 07:38:33;;;;;;;44.72;30.20;;;11.00;99.90;;;;;;5014383;28;20018;-70
2023/04/22 07:40:59;;;;;;;43.88;29.17;;;11.00;99.90;;;;;;5013859;28;20487;-70
2023/04/22 07:43:24;;;;;;;46.08;29.85;;;11.10;99.90;;;;;;5013002;28;20438;-70
2023/04/22 07:45:50;;;;;;;42.28;27.35;;;11.10;99.90;;;;;;5013482;28;20029;-70
2023/04/22 07:48:16;;;;;;;41.03;26.95;;;11.10;99.90;;;;;;5000571;28;20026;-70
2023/04/22 07:50:41;;;;;;;39.67;27.35;;;11.20;99.90;;;;;;5013397;28;20408;-70
2023/04/22 07:53:09;;;;;;;40.75;27.50;;;11.30;99.90;;;;;;5013275;28;20115;-71
2023/04/22 07:55:35;;;;;;;40.88;25.23;;;11.40;99.90;;;;;;5013398;28;20018;-72
2023/04/22 07:58:05;;;;;;;36.20;24.15;;;11.60;99.90;;;;;;5013985;28;20362;-72
2023/04/22 08:00:32;;;;;;;35.63;22.90;;;11.70;99.90;;;;;;5013999;28;20045;-71
2023/04/22 08:02:57;;;;;;;30.50;20.83;;;11.90;99.90;;;;;;5013835;28;20028;-72
2023/04/22 08:05:23;;;;;;;32.17;20.75;;;12.10;99.90;;;;;;5011013;28;20412;-73
2023/04/22 08:07:49;;;;;;;29.92;20.77;;;12.20;99.90;;;;;;5013788;28;20480;-71
2023/04/22 08:10:15;;;;;;;26.75;18.50;;;12.40;99.90;;;;;;5014276;28;20057;-71
2023/04/22 08:12:40;;;;;;;32.85;20.08;;;12.50;99.90;;;;;;5014763;28;20033;-71
2023/04/22 08:15:07;;;;;;;29.48;20.02;;;12.70;99.90;;;;;;5014947;28;20044;-71
2023/04/22 08:17:32;;;;;;;30.13;19.73;;;12.70;99.90;;;;;;5015192;28;20385;-71
2023/04/22 08:19:58;;;;;;;28.15;19.75;;;12.80;99.90;;;;;;5012972;28;20022;-71
2023/04/22 08:22:24;;;;;;;27.85;18.33;;;12.90;99.90;;;;;;5013382;28;20025;-70
2023/04/22 08:24:49;;;;;;;27.63;18.17;;;12.90;99.90;;;;;;5013552;28;20025;-71
2023/04/22 08:27:15;;;;;;;24.20;17.35;;;13.00;99.90;;;;;;5013921;28;20075;-70
2023/04/22 08:29:41;;;;;;;23.50;16.35;;;13.10;99.90;;;;;;5013290;28;20408;-70
2023/04/22 08:32:06;;;;;;;25.52;16.42;;;13.20;99.90;;;;;;5012846;28;20076;-71
2023/04/22 08:34:32;;;;;;;22.13;15.25;;;13.30;99.90;;;;;;5013319;28;20104;-70
2023/04/22 08:36:58;;;;;;;23.55;16.48;;;13.40;99.90;;;;;;5013176;28;20021;-70
2023/04/22 08:39:24;;;;;;;21.65;15.43;;;13.50;99.90;;;;;;5012884;28;20234;-70
2023/04/22 08:41:50;;;;;;;21.38;15.18;;;13.60;99.90;;;;;;5012022;28;20037;-71
2023/04/22 08:44:16;;;;;;;19.90;14.40;;;13.80;99.90;;;;;;5012249;28;20036;-71
2023/04/22 08:46:47;;;;;;;20.63;14.70;;;13.90;99.90;;;;;;5011591;28;20545;-69
2023/04/22 08:49:14;;;;;;;21.92;15.90;;;14.00;99.90;;;;;;5012398;28;20454;-71
2023/04/22 08:51:42;;;;;;;17.92;13.77;;;14.10;99.90;;;;;;5011569;28;20485;-70
2023/04/22 08:54:08;;;;;;;21.13;15.18;;;14.30;99.90;;;;;;5012724;28;20033;-70
2023/04/22 08:56:35;;;;;;;20.83;14.68;;;14.40;99.90;;;;;;5012234;28;20048;-70
2023/04/22 08:59:02;;;;;;;24.23;14.82;;;14.40;99.90;;;;;;5012325;28;20014;-70
2023/04/22 09:01:30;;;;;;;21.20;14.90;;;14.50;99.90;;;;;;5012649;28;20389;-70
2023/04/22 09:03:59;;;;;;;21.30;14.95;;;14.70;99.90;;;;;;5008477;28;20014;-71
2023/04/22 09:06:26;;;;;;;21.83;14.65;;;14.70;99.90;;;;;;5003500;28;20022;-70
2023/04/22 09:08:52;;;;;;;20.63;14.13;;;14.90;99.90;;;;;;5011965;28;20461;-70
2023/04/22 09:11:18;;;;;;;19.63;14.77;;;15.00;99.90;;;;;;5011823;28;20492;-70
2023/04/22 09:13:44;;;;;;;18.88;13.98;;;15.10;99.90;;;;;;5011477;28;20025;-70
2023/04/22 09:16:09;;;;;;;18.67;13.32;;;15.20;99.90;;;;;;5012111;28;20444;-70
2023/04/22 09:18:40;;;;;;;19.42;14.07;;;15.30;99.90;;;;;;5011634;28;20161;-69
2023/04/22 09:21:05;;;;;;;17.88;13.45;;;15.30;99.90;;;;;;5011610;28;20026;-70
2023/04/22 09:23:31;;;;;;;16.30;12.90;;;15.20;99.90;;;;;;5011411;28;20022;-71
2023/04/22 09:25:58;;;;;;;15.55;11.38;;;15.10;99.90;;;;;;5011701;28;20041;-70
2023/04/22 09:28:23;;;;;;;14.98;12.02;;;15.10;99.90;;;;;;5011448;28;20326;-71
2023/04/22 09:30:49;;;;;;;17.08;12.40;;;15.00;99.90;;;;;;5012833;28;20148;-71
2023/04/22 09:33:16;;;;;;;16.48;12.35;;;15.00;99.90;;;;;;5011485;28;20125;-70
2023/04/22 09:35:42;;;;;;;15.38;12.18;;;14.90;99.90;;;;;;5011685;28;20100;-71
2023/04/22 09:38:10;;;;;;;14.45;11.00;;;14.80;99.90;;;;;;5005584;28;20027;-71
2023/04/22 09:40:40;;;;;;;13.32;10.48;;;14.70;99.90;;;;;;5005716;28;20036;-71
2023/04/22 09:43:07;;;;;;;11.50;8.85;;;14.70;99.90;;;;;;5000000;28;20034;-72
2023/04/22 09:45:41;;;;;;;11.40;9.35;;;14.70;99.90;;;;;;5012644;28;20030;-69
2023/04/22 09:48:12;;;;;;;11.85;9.63;;;14.60;99.90;;;;;;5012945;28;20050;-69
2023/04/22 09:50:41;;;;;;;12.00;9.18;;;14.60;99.90;;;;;;5012179;28;20132;-70
2023/04/22 09:53:10;;;;;;;12.10;9.48;;;14.70;99.90;;;;;;5009740;28;20112;-70
2023/04/22 09:55:42;;;;;;;12.00;9.10;;;14.70;99.90;;;;;;5011095;28;20405;-69
2023/04/22 09:58:18;;;;;;;11.25;8.98;;;14.70;99.90;;;;;;5011104;28;20041;-69
2023/04/22 10:00:47;;;;;;;11.57;9.48;;;14.70;99.90;;;;;;5010644;28;20064;-69
2023/04/22 10:03:14;;;;;;;11.35;8.50;;;14.80;99.90;;;;;;5010939;28;20109;-70
2023/04/22 10:05:40;;;;;;;12.70;9.38;;;14.90;99.90;;;;;;5010298;28;20021;-70
2023/04/22 10:08:08;;;;;;;12.65;10.43;;;15.00;99.90;;;;;;5010537;28;20024;-70
2023/04/22 10:10:34;;;;;;;13.60;10.95;;;15.20;99.90;;;;;;5007183;28;20050;-70
2023/04/22 10:13:03;;;;;;;13.75;10.98;;;15.20;99.90;;;;;;5009204;28;20048;-70
2023/04/22 10:15:34;;;;;;;13.88;11.38;;;15.30;99.90;;;;;;5010702;28;20085;-70
2023/04/22 10:18:01;;;;;;;15.77;12.35;;;15.30;99.90;;;;;;5010707;28;20025;-70
2023/04/22 10:20:28;;;;;;;17.35;13.25;;;15.40;99.90;;;;;;5001978;28;20045;-70
2023/04/22 10:22:55;;;;;;;17.27;13.18;;;15.30;99.90;;;;;;5011606;28;20028;-69
2023/04/22 10:25:25;;;;;;;18.20;13.38;;;15.30;99.90;;;;;;5010239;28;20080;-69
2023/04/22 10:28:05;;;;;;;17.70;13.32;;;15.20;99.90;;;;;;5012421;28;20032;-69
2023/04/22 10:30:33;;;;;;;19.75;13.13;;;15.10;99.90;;;;;;5011294;28;20468;-69
2023/04/22 10:33:20;;;;;;;21.02;14.00;;;15.00;99.90;;;;;;5010011;28;20417;-70
2023/04/22 10:36:14;;;;;;;19.77;13.93;;;14.90;99.90;;;;;;5010870;28;20018;-69
2023/04/22 10:38:45;;;;;;;18.65;13.90;;;14.80;99.90;;;;;;5007440;28;20030;-70
2023/04/22 10:41:14;;;;;;;19.17;13.35;;;14.80;99.90;;;;;;5010950;28;20018;-70
2023/04/22 10:43:41;;;;;;;16.55;12.82;;;14.70;99.90;;;;;;5010916;28;20014;-70
2023/04/22 10:46:06;;;;;;;19.73;13.68;;;14.60;99.90;;;;;;5004848;28;20088;-70
2023/04/22 10:48:48;;;;;;;18.98;13.32;;;14.50;99.90;;;;;;5014978;28;20480;-71
2023/04/22 10:51:39;;;;;;;17.98;13.70;;;14.50;99.90;;;;;;5014775;28;20041;-70
2023/04/22 10:54:06;;;;;;;17.98;13.65;;;14.50;99.90;;;;;;5013815;28;20286;-71
2023/04/22 10:56:31;;;;;;;20.70;14.70;;;14.50;99.90;;;;;;5008315;28;20405;-70
2023/04/22 10:58:57;;;;;;;20.55;14.43;;;14.40;99.90;;;;;;4999986;28;21009;-70
2023/04/22 11:01:26;;;;;;;19.42;14.23;;;14.40;99.90;;;;;;5005398;28;20033;-70
2023/04/22 11:03:51;;;;;;;20.10;14.98;;;14.40;99.90;;;;;;5011596;28;20547;-71
2023/04/22 11:06:21;;;;;;;25.73;15.68;;;14.30;99.90;;;;;;5006747;28;20026;-70
2023/04/22 11:09:06;;;;;;;24.60;16.70;;;14.30;99.90;;;;;;5009148;28;20511;-69
2023/04/22 11:11:31;;;;;;;24.90;16.83;;;14.20;99.90;;;;;;5014461;28;20042;-70
2023/04/22 11:13:57;;;;;;;27.85;19.42;;;14.10;99.90;;;;;;5004584;28;20026;-70
2023/04/22 11:16:23;;;;;;;34.22;23.25;;;14.10;99.90;;;;;;5004754;28;20018;-70
2023/04/22 11:18:49;;;;;;;38.45;24.65;;;14.00;99.90;;;;;;5014918;28;20033;-70
2023/04/22 11:21:15;;;;;;;38.58;25.73;;;13.90;99.90;;;;;;5014710;28;20033;-71
2023/04/22 11:23:51;;;;;;;43.47;29.20;;;13.80;99.90;;;;;;5009292;28;20405;-70
2023/04/22 11:26:17;;;;;;;45.72;28.95;;;13.70;99.90;;;;;;5012601;28;20030;-71
2023/04/22 11:28:46;;;;;;;42.20;28.90;;;13.50;99.90;;;;;;5015285;28;20519;-71
2023/04/22 11:31:13;;;;;;;46.22;30.77;;;13.30;99.90;;;;;;5014410;28;20076;-71
2023/04/22 11:33:40;;;;;;;47.58;30.83;;;13.20;99.90;;;;;;5014781;28;20025;-71
2023/04/22 11:36:12;;;;;;;48.58;31.80;;;13.10;99.90;;;;;;5014708;28;20025;-70
2023/04/22 11:38:38;;;;;;;48.30;31.65;;;13.00;99.90;;;;;;5014493;28;20044;-70
2023/04/22 11:41:04;;;;;;;49.95;32.17;;;12.90;99.90;;;;;;5014410;28;20092;-70
2023/04/22 11:43:29;;;;;;;52.17;33.20;;;12.80;99.90;;;;;;5014470;28;20014;-71
2023/04/22 11:45:56;;;;;;;50.60;31.58;;;12.70;99.90;;;;;;5014486;28;20097;-71
2023/04/22 11:48:21;;;;;;;52.08;32.65;;;12.70;99.90;;;;;;5013400;28;20053;-70
2023/04/22 11:50:47;;;;;;;50.67;31.90;;;12.70;99.90;;;;;;5013220;28;20076;-70
2023/04/22 11:53:20;;;;;;;53.78;32.65;;;12.70;99.90;;;;;;5014357;28;20493;-70
2023/04/22 11:55:49;;;;;;;50.83;32.25;;;12.60;99.90;;;;;;5014260;28;20034;-70
2023/04/22 11:58:37;;;;;;;50.72;33.38;;;12.60;99.90;;;;;;5014044;28;20404;-70
2023/04/22 12:01:03;;;;;;;54.75;33.40;;;12.50;99.90;;;;;;5008560;28;20126;-70
2023/04/22 12:03:29;;;;;;;55.22;34.08;;;12.40;99.90;;;;;;5006909;28;20104;-71
2023/04/22 12:06:01;;;;;;;56.47;34.03;;;12.30;99.90;;;;;;5006371;28;20445;-70
2023/04/22 12:08:30;;;;;;;56.67;33.95;;;12.30;99.90;;;;;;4995384;28;20053;-70
2023/04/22 12:10:58;;;;;;;54.35;33.53;;;12.10;99.90;;;;;;5012663;28;20053;-71
2023/04/22 12:13:30;;;;;;;59.13;35.10;;;12.00;99.90;;;;;;5012363;28;20101;-70
2023/04/22 12:16:01;;;;;;;59.08;35.90;;;11.90;99.90;;;;;;5012727;28;20014;-71
2023/04/22 12:18:34;;;;;;;55.95;35.08;;;12.00;99.90;;;;;;5012142;28;20036;-69
2023/04/22 12:21:03;;;;;;;55.42;33.67;;;12.00;99.90;;;;;;5012549;28;20053;-70
2023/04/22 12:23:30;;;;;;;56.20;34.35;;;11.90;99.90;;;;;;5012143;28;20076;-70
2023/04/22 12:25:56;;;;;;;57.28;35.30;;;11.90;99.90;;;;;;5013225;28;20380;-70
2023/04/22 12:28:21;;;;;;;60.75;36.08;;;11.90;99.90;;;;;;5012295;28;20105;-69
2023/04/22 12:30:47;;;;;;;58.47;35.85;;;12.00;99.90;;;;;;5000808;28;20393;-69